Time;durP1;ratioP1;P1;durP2;ratioP2;P2;SDS_P1;SDS_P2;PMS_P1;PMS_P2;Temp;Humidity;BMP_temperature;BMP_pressure;BME280_temperature;BME280_humidity;BME280_pressure;Samples;Min_cycle;Max_cycle;Signal;HPM_P1;HPM_P2
2022/08/13 00:00:59;;;;;;;16.88;15.98;;;;;;;;;;5062392;28;20417;-62
2022/08/13 00:03:29;;;;;;;13.55;12.75;;;;;;;;;;5062250;28;20081;-62
2022/08/13 00:05:54;;;;;;;14.05;13.25;;;;;;;;;;5064819;28;20032;-62
2022/08/13 00:08:24;;;;;;;13.77;12.98;;;;;;;;;;5066570;28;20122;-62
2022/08/13 00:10:50;;;;;;;14.18;13.38;;;;;;;;;;5062383;28;20035;-62
2022/08/13 00:13:16;;;;;;;13.68;12.90;;;;;;;;;;5066252;28;20017;-62
2022/08/13 00:15:43;;;;;;;13.65;12.85;;;;;;;;;;5063036;28;20102;-62
2022/08/13 00:18:19;;;;;;;13.20;12.43;;;;;;;;;;5062769;28;20115;-62
2022/08/13 00:20:48;;;;;;;14.43;13.63;;;;;;;;;;5061447;28;20109;-62
2022/08/13 00:23:16;;;;;;;14.38;13.55;;;;;;;;;;5062951;28;20125;-62
2022/08/13 00:25:44;;;;;;;13.45;12.65;;;;;;;;;;5063594;28;20040;-62
2022/08/13 00:28:10;;;;;;;13.80;13.00;;;;;;;;;;5066381;28;20033;-62
2022/08/13 00:30:38;;;;;;;13.68;12.88;;;;;;;;;;5067419;28;20055;-62
2022/08/13 00:33:03;;;;;;;12.95;12.20;;;;;;;;;;5062547;28;20043;-62
2022/08/13 00:35:28;;;;;;;10.50;9.80;;;;;;;;;;5063272;28;20028;-61
2022/08/13 00:37:57;;;;;;;10.23;9.60;;;;;;;;;;5066763;28;20040;-62
2022/08/13 00:40:24;;;;;;;11.45;10.75;;;;;;;;;;5060669;28;20547;-61
2022/08/13 00:42:50;;;;;;;9.38;8.77;;;;;;;;;;5060960;28;20275;-61
2022/08/13 00:45:16;;;;;;;10.55;9.93;;;;;;;;;;5063699;28;20378;-61
2022/08/13 00:50:27;;;;;;;7.25;6.70;;;;;;;;;;5062871;28;20028;-61
2022/08/13 00:52:54;;;;;;;7.00;6.50;;;;;;;;;;5060287;28;20318;-62
2022/08/13 00:55:20;;;;;;;6.50;6.00;;;;;;;;;;5064326;28;20040;-62
2022/08/13 00:57:48;;;;;;;6.13;5.72;;;;;;;;;;5061436;28;20028;-62
2022/08/13 01:00:17;;;;;;;7.38;6.88;;;;;;;;;;5066943;28;20028;-62
2022/08/13 01:02:53;;;;;;;6.53;6.10;;;;;;;;;;5066684;28;20131;-63
2022/08/13 01:05:24;;;;;;;6.45;6.05;;;;;;;;;;5062376;28;20024;-62
2022/08/13 01:07:50;;;;;;;7.05;6.55;;;;;;;;;;5065630;28;20473;-62
2022/08/13 01:10:17;;;;;;;6.82;6.35;;;;;;;;;;5063233;28;20047;-62
2022/08/13 01:12:47;;;;;;;6.68;6.18;;;;;;;;;;5062170;28;20033;-62
2022/08/13 01:15:13;;;;;;;6.53;6.03;;;;;;;;;;5064253;28;20363;-62
2022/08/13 01:17:45;;;;;;;6.55;6.05;;;;;;;;;;5064262;28;20541;-62
2022/08/13 01:20:16;;;;;;;6.95;6.45;;;;;;;;;;5061288;28;20029;-63
2022/08/13 01:22:43;;;;;;;6.65;6.15;;;;;;;;;;5061407;28;20064;-63
2022/08/13 01:25:08;;;;;;;6.28;5.88;;;;;;;;;;5065552;28;20115;-63
2022/08/13 01:27:39;;;;;;;6.68;6.20;;;;;;;;;;5059688;28;20128;-63
2022/08/13 01:30:06;;;;;;;;;;;;;;;;;;5069403;28;20032;-63
2022/08/13 01:32:32;;;;;;;6.50;6.05;;;;;;;;;;5062532;28;20316;-62
2022/08/13 01:34:58;;;;;;;5.90;5.50;;;;;;;;;;5064052;28;20194;-62
2022/08/13 01:37:24;;;;;;;6.93;6.43;;;;;;;;;;5061128;28;20127;-63
2022/08/13 01:39:50;;;;;;;8.18;7.57;;;;;;;;;;5066143;28;20087;-62
2022/08/13 01:42:22;;;;;;;6.53;6.07;;;;;;;;;;5063061;28;20028;-62
2022/08/13 01:44:48;;;;;;;6.80;6.30;;;;;;;;;;5059309;28;20035;-62
2022/08/13 01:52:42;;;;;;;6.90;6.40;;;;;;;;;;5062813;28;20056;-62
2022/08/13 01:55:08;;;;;;;6.45;6.05;;;;;;;;;;5064286;28;20614;-62
2022/08/13 01:57:36;;;;;;;7.25;6.75;;;;;;;;;;5062771;28;20334;-62
2022/08/13 02:00:05;;;;;;;7.38;6.88;;;;;;;;;;5059168;28;20628;-62
2022/08/13 02:02:31;;;;;;;6.60;6.10;;;;;;;;;;5063303;28;20032;-62
2022/08/13 02:04:56;;;;;;;8.25;7.72;;;;;;;;;;5062405;28;20078;-62
2022/08/13 02:07:22;;;;;;;7.30;6.80;;;;;;;;;;5063442;28;20361;-62
2022/08/13 02:09:47;;;;;;;7.63;7.13;;;;;;;;;;5064542;28;20040;-62
2022/08/13 02:12:15;;;;;;;13.40;6.50;;;;;;;;;;5060867;28;20029;-62
2022/08/13 02:14:42;;;;;;;6.95;6.45;;;;;;;;;;5064716;28;20028;-62
2022/08/13 02:17:24;;;;;;;8.35;7.75;;;;;;;;;;5060402;28;20093;-62
2022/08/13 02:19:52;;;;;;;8.30;7.70;;;;;;;;;;5059465;28;20331;-62
2022/08/13 02:22:18;;;;;;;7.70;7.15;;;;;;;;;;5059861;28;20154;-62
2022/08/13 02:24:57;;;;;;;7.28;6.78;;;;;;;;;;5064010;28;20115;-62
2022/08/13 02:27:25;;;;;;;7.35;6.85;;;;;;;;;;5059697;28;20094;-62
2022/08/13 02:29:55;;;;;;;8.77;8.13;;;;;;;;;;5062929;28;20476;-62
2022/08/13 02:32:25;;;;;;;7.93;7.32;;;;;;;;;;5062094;28;20021;-62
2022/08/13 02:34:52;;;;;;;6.75;6.25;;;;;;;;;;5062215;28;20415;-62
2022/08/13 02:37:21;;;;;;;7.38;6.88;;;;;;;;;;5064441;28;20036;-62
2022/08/13 02:39:51;;;;;;;7.88;7.35;;;;;;;;;;5061697;28;20052;-62
2022/08/13 02:42:18;;;;;;;8.68;8.10;;;;;;;;;;5059722;28;20051;-62
2022/08/13 02:44:48;;;;;;;7.28;6.78;;;;;;;;;;5061568;28;20313;-62
2022/08/13 02:47:18;;;;;;;8.15;7.65;;;;;;;;;;5057181;28;20032;-62
2022/08/13 02:49:44;;;;;;;7.30;6.80;;;;;;;;;;5059779;28;20040;-62
2022/08/13 02:52:10;;;;;;;7.30;6.80;;;;;;;;;;5059702;28;20013;-62
2022/08/13 02:54:42;;;;;;;7.50;7.00;;;;;;;;;;5061459;28;20040;-62
2022/08/13 02:57:09;;;;;;;7.45;6.85;;;;;;;;;;5059968;28;20048;-62
2022/08/13 02:59:34;;;;;;;7.65;7.15;;;;;;;;;;5057973;28;20032;-63
2022/08/13 03:02:00;;;;;;;7.47;6.97;;;;;;;;;;5055332;28;20037;-62
2022/08/13 03:04:26;;;;;;;7.20;6.70;;;;;;;;;;5063566;28;20161;-62
2022/08/13 03:06:51;;;;;;;9.85;9.25;;;;;;;;;;5059702;28;20188;-62
2022/08/13 03:09:20;;;;;;;9.70;8.30;;;;;;;;;;5058908;28;20036;-62
2022/08/13 03:11:47;;;;;;;9.02;8.43;;;;;;;;;;5059825;28;20394;-62
2022/08/13 03:14:13;;;;;;;8.70;8.13;;;;;;;;;;5058908;28;20052;-62
2022/08/13 03:16:39;;;;;;;7.55;7.05;;;;;;;;;;5059773;28;20093;-62
2022/08/13 03:19:05;;;;;;;8.80;7.97;;;;;;;;;;5056169;28;20036;-63
2022/08/13 03:21:32;;;;;;;7.82;7.32;;;;;;;;;;5060486;28;20446;-62
2022/08/13 03:23:59;;;;;;;8.63;8.05;;;;;;;;;;5060246;28;20068;-62
2022/08/13 03:26:25;;;;;;;8.70;8.10;;;;;;;;;;5058512;28;20116;-62
2022/08/13 03:28:54;;;;;;;6.90;6.40;;;;;;;;;;5057818;28;20369;-62
2022/08/13 03:31:20;;;;;;;7.88;7.30;;;;;;;;;;5057761;28;20029;-62
2022/08/13 03:33:47;;;;;;;7.35;6.85;;;;;;;;;;5056196;28;20489;-62
2022/08/13 03:36:13;;;;;;;7.35;6.85;;;;;;;;;;5056490;28;20060;-62
2022/08/13 03:38:39;;;;;;;7.55;7.05;;;;;;;;;;5060814;28;20043;-62
2022/08/13 03:41:14;;;;;;;6.45;6.05;;;;;;;;;;5061110;28;20036;-62
2022/08/13 03:43:45;;;;;;;7.47;6.95;;;;;;;;;;5058328;28;20043;-62
2022/08/13 03:46:23;;;;;;;6.85;6.35;;;;;;;;;;5060033;28;20047;-62
2022/08/13 03:48:49;;;;;;;6.70;6.20;;;;;;;;;;5056562;28;20040;-62
2022/08/13 03:51:16;;;;;;;7.22;6.72;;;;;;;;;;5058182;28;20067;-62
2022/08/13 03:53:43;;;;;;;6.60;6.15;;;;;;;;;;5058997;28;20094;-62
2022/08/13 03:56:11;;;;;;;5.93;5.53;;;;;;;;;;5059769;28;20040;-63
2022/08/13 03:58:37;;;;;;;7.10;6.60;;;;;;;;;;5065105;28;20097;-62
2022/08/13 04:01:04;;;;;;;7.15;6.65;;;;;;;;;;5059051;28;20385;-62
2022/08/13 04:03:36;;;;;;;7.10;6.60;;;;;;;;;;5057009;28;20037;-62
2022/08/13 04:06:07;;;;;;;7.05;6.55;;;;;;;;;;5060506;28;20370;-63
2022/08/13 04:08:35;;;;;;;6.18;5.78;;;;;;;;;;5065286;28;20032;-63
2022/08/13 04:11:03;;;;;;;6.70;6.22;;;;;;;;;;5065705;28;20206;-62
2022/08/13 04:13:30;;;;;;;7.15;6.65;;;;;;;;;;5064833;28;20132;-62
2022/08/13 04:15:55;;;;;;;6.72;6.22;;;;;;;;;;5066397;28;20025;-63
2022/08/13 04:18:21;;;;;;;7.13;6.63;;;;;;;;;;5068172;28;20029;-63
2022/08/13 04:20:52;;;;;;;7.80;7.10;;;;;;;;;;5061470;28;20519;-63
2022/08/13 04:23:18;;;;;;;6.60;6.10;;;;;;;;;;5062078;28;20021;-62
2022/08/13 04:25:46;;;;;;;7.35;6.85;;;;;;;;;;5058449;28;20074;-63
2022/08/13 04:28:12;;;;;;;7.45;6.88;;;;;;;;;;5061544;28;20020;-63
2022/08/13 04:30:40;;;;;;;6.63;6.18;;;;;;;;;;5060810;28;20095;-62
2022/08/13 04:33:09;;;;;;;7.10;6.53;;;;;;;;;;5061424;28;20067;-62
2022/08/13 04:35:35;;;;;;;6.28;5.85;;;;;;;;;;5063098;28;20029;-62
2022/08/13 04:38:00;;;;;;;6.05;5.65;;;;;;;;;;5061257;28;20024;-62
2022/08/13 04:40:26;;;;;;;8.25;7.63;;;;;;;;;;5063340;28;20038;-62
2022/08/13 04:42:53;;;;;;;7.97;7.38;;;;;;;;;;5065107;28;20075;-62
2022/08/13 04:45:23;;;;;;;7.32;6.82;;;;;;;;;;5064088;28;20090;-62
2022/08/13 04:47:49;;;;;;;6.55;6.05;;;;;;;;;;5063268;28;20043;-62
2022/08/13 04:50:15;;;;;;;6.82;6.32;;;;;;;;;;5069375;28;20421;-62
2022/08/13 04:52:41;;;;;;;7.65;7.15;;;;;;;;;;5068147;28;20028;-62
2022/08/13 04:55:07;;;;;;;6.97;6.47;;;;;;;;;;5069426;28;20035;-62
2022/08/13 04:57:33;;;;;;;7.10;6.60;;;;;;;;;;5058568;28;20093;-62
2022/08/13 05:00:02;;;;;;;7.20;6.70;;;;;;;;;;5066176;28;20064;-62
2022/08/13 05:02:28;;;;;;;7.35;6.85;;;;;;;;;;5061679;28;20090;-62
2022/08/13 05:04:54;;;;;;;7.10;6.60;;;;;;;;;;5061849;28;20413;-62
2022/08/13 05:07:20;;;;;;;7.15;6.63;;;;;;;;;;5066422;28;20359;-62
2022/08/13 05:09:45;;;;;;;7.82;7.32;;;;;;;;;;5066563;28;20062;-63
2022/08/13 05:12:11;;;;;;;6.80;6.30;;;;;;;;;;5061353;28;20021;-64
2022/08/13 05:14:36;;;;;;;7.60;7.10;;;;;;;;;;5067069;28;20028;-64
2022/08/13 05:17:03;;;;;;;7.07;6.47;;;;;;;;;;5059531;28;20165;-64
2022/08/13 05:19:29;;;;;;;6.72;6.22;;;;;;;;;;5059506;28;20047;-64
2022/08/13 05:21:55;;;;;;;7.28;6.78;;;;;;;;;;5063361;28;20032;-64
2022/08/13 05:24:22;;;;;;;7.22;6.72;;;;;;;;;;5061990;28;20036;-64
2022/08/13 05:26:48;;;;;;;6.88;6.38;;;;;;;;;;5059049;28;20071;-64
2022/08/13 05:29:14;;;;;;;6.80;6.30;;;;;;;;;;5061070;28;20362;-64
2022/08/13 05:31:39;;;;;;;6.57;6.13;;;;;;;;;;5060664;28;20036;-64
2022/08/13 05:34:06;;;;;;;6.40;5.90;;;;;;;;;;5063521;28;20473;-64
2022/08/13 05:36:32;;;;;;;7.05;6.55;;;;;;;;;;5063760;28;20025;-64
2022/08/13 05:38:58;;;;;;;6.88;6.38;;;;;;;;;;5062522;28;20033;-64
2022/08/13 05:41:25;;;;;;;6.65;6.15;;;;;;;;;;5063874;28;20024;-64
2022/08/13 05:43:51;;;;;;;6.93;6.43;;;;;;;;;;5063784;28;20032;-64
2022/08/13 05:46:17;;;;;;;7.35;6.85;;;;;;;;;;5061141;28;20548;-64
2022/08/13 05:48:56;;;;;;;7.75;7.25;;;;;;;;;;5064793;28;20354;-63
2022/08/13 05:51:25;;;;;;;7.03;6.43;;;;;;;;;;5043859;28;20050;-64
2022/08/13 05:53:54;;;;;;;8.05;7.35;;;;;;;;;;5065367;28;20385;-64
2022/08/13 05:56:23;;;;;;;7.35;6.85;;;;;;;;;;5060151;28;20044;-63
2022/08/13 05:58:49;;;;;;;6.40;6.00;;;;;;;;;;5061088;28;20036;-63
2022/08/13 06:04:00;;;;;;;8.80;8.20;;;;;;;;;;5063144;28;20429;-63
2022/08/13 06:06:25;;;;;;;8.25;7.65;;;;;;;;;;5064080;28;20036;-63
2022/08/13 06:08:56;;;;;;;7.38;6.88;;;;;;;;;;5060619;28;20028;-64
2022/08/13 06:11:21;;;;;;;6.35;5.95;;;;;;;;;;5061896;28;20135;-63
2022/08/13 06:13:48;;;;;;;6.32;5.82;;;;;;;;;;5064211;28;20020;-64
2022/08/13 06:16:20;;;;;;;7.20;6.70;;;;;;;;;;5061457;28;20110;-62
2022/08/13 06:18:48;;;;;;;6.28;5.80;;;;;;;;;;5063472;28;20123;-64
2022/08/13 06:21:16;;;;;;;5.85;5.45;;;;;;;;;;5062114;28;20033;-62
2022/08/13 06:23:45;;;;;;;7.25;6.75;;;;;;;;;;5063951;28;20064;-63
2022/08/13 06:26:12;;;;;;;5.35;4.95;;;;;;;;;;5062130;28;20064;-61
2022/08/13 06:28:41;;;;;;;5.80;5.40;;;;;;;;;;5060293;28;20485;-61
2022/08/13 06:31:13;;;;;;;6.45;5.95;;;;;;;;;;5059436;28;20045;-62
2022/08/13 06:33:40;;;;;;;6.00;5.60;;;;;;;;;;5057019;28;20036;-62
2022/08/13 06:36:07;;;;;;;5.70;5.30;;;;;;;;;;5056597;28;20035;-62
2022/08/13 06:38:34;;;;;;;5.28;4.88;;;;;;;;;;5056859;28;20182;-63
2022/08/13 06:41:04;;;;;;;5.85;5.45;;;;;;;;;;5063518;28;20028;-63
2022/08/13 06:43:35;;;;;;;5.78;5.38;;;;;;;;;;5067395;28;20032;-61
2022/08/13 06:46:03;;;;;;;7.32;6.82;;;;;;;;;;5062453;28;20433;-63
2022/08/13 06:48:28;;;;;;;6.80;6.30;;;;;;;;;;5060279;28;20036;-63
2022/08/13 06:50:55;;;;;;;6.32;5.78;;;;;;;;;;5062658;28;20911;-62
2022/08/13 06:53:20;;;;;;;6.00;5.60;;;;;;;;;;5063630;28;20401;-62
2022/08/13 06:55:49;;;;;;;10.80;10.15;;;;;;;;;;5059418;28;20037;-61
2022/08/13 06:58:15;;;;;;;17.05;16.10;;;;;;;;;;5058830;28;20071;-61
2022/08/13 07:00:42;;;;;;;15.95;15.02;;;;;;;;;;5055325;28;20442;-60
2022/08/13 07:03:10;;;;;;;18.13;17.02;;;;;;;;;;5060218;28;20036;-62
2022/08/13 07:05:44;;;;;;;24.10;22.83;;;;;;;;;;5060293;28;20199;-62
2022/08/13 07:08:12;;;;;;;20.38;19.27;;;;;;;;;;5060427;28;20023;-61
2022/08/13 07:10:50;;;;;;;31.08;29.45;;;;;;;;;;5059793;28;20040;-62
2022/08/13 07:13:19;;;;;;;31.75;30.15;;;;;;;;;;5066795;28;20044;-61
2022/08/13 07:15:51;;;;;;;36.50;34.63;;;;;;;;;;5058261;28;20478;-62
2022/08/13 07:18:16;;;;;;;38.60;36.60;;;;;;;;;;5062800;28;20044;-62
2022/08/13 07:20:42;;;;;;;37.53;35.63;;;;;;;;;;5060335;28;20037;-62
2022/08/13 07:23:08;;;;;;;37.80;35.83;;;;;;;;;;5062722;28;20056;-62
2022/08/13 07:25:35;;;;;;;38.00;36.05;;;;;;;;;;5058356;28;20091;-61
2022/08/13 07:28:02;;;;;;;35.28;33.47;;;;;;;;;;5059900;28;20032;-61
2022/08/13 07:30:28;;;;;;;35.40;33.60;;;;;;;;;;5060645;28;20434;-61
2022/08/13 07:32:53;;;;;;;37.00;35.10;;;;;;;;;;5061303;28;20215;-60
2022/08/13 07:35:19;;;;;;;39.65;37.65;;;;;;;;;;5061836;28;20032;-61
2022/08/13 07:37:49;;;;;;;39.28;37.28;;;;;;;;;;5055671;28;20043;-61
2022/08/13 07:40:15;;;;;;;41.45;39.25;;;;;;;;;;5057862;28;20037;-61
2022/08/13 07:42:43;;;;;;;44.78;42.47;;;;;;;;;;5059466;28;20028;-61
2022/08/13 07:45:10;;;;;;;38.70;36.70;;;;;;;;;;5064176;28;20034;-61
2022/08/13 07:47:38;;;;;;;41.28;39.17;;;;;;;;;;5058978;28;20033;-61
2022/08/13 07:50:05;;;;;;;46.25;43.90;;;;;;;;;;5061367;28;20033;-62
2022/08/13 07:52:31;;;;;;;47.08;44.70;;;;;;;;;;5055600;28;20039;-62
2022/08/13 07:54:58;;;;;;;53.10;50.42;;;;;;;;;;5059900;28;20408;-63
2022/08/13 07:57:27;;;;;;;61.00;57.97;;;;;;;;;;5060715;28;20480;-61
2022/08/13 07:59:53;;;;;;;55.20;52.40;;;;;;;;;;5058761;28;20374;-59
2022/08/13 08:02:18;;;;;;;55.80;53.00;;;;;;;;;;5060229;28;20029;-60
2022/08/13 08:04:44;;;;;;;61.47;58.40;;;;;;;;;;5058470;28;20108;-60
2022/08/13 08:07:12;;;;;;;66.55;63.25;;;;;;;;;;5057417;28;20115;-60
2022/08/13 08:09:38;;;;;;;52.45;49.78;;;;;;;;;;5060345;28;20273;-60
2022/08/13 08:14:50;;;;;;;71.63;68.07;;;;;;;;;;5063818;28;20040;-61
2022/08/13 08:17:16;;;;;;;60.00;56.97;;;;;;;;;;5065578;28;20106;-60
2022/08/13 08:19:42;;;;;;;68.95;65.53;;;;;;;;;;5067344;28;20028;-59
2022/08/13 08:22:11;;;;;;;61.97;58.88;;;;;;;;;;5060492;28;20335;-58
2022/08/13 08:24:37;;;;;;;65.88;62.60;;;;;;;;;;5061434;28;20037;-58
2022/08/13 08:27:05;;;;;;;82.88;78.80;;;;;;;;;;5064689;28;20469;-59
2022/08/13 08:29:32;;;;;;;84.25;80.05;;;;;;;;;;5061964;28;20154;-59
2022/08/13 08:32:07;;;;;;;81.68;77.65;;;;;;;;;;5062086;28;20037;-58
2022/08/13 08:34:34;;;;;;;82.82;78.72;;;;;;;;;;5063495;28;20707;-59
2022/08/13 08:36:59;;;;;;;83.35;79.25;;;;;;;;;;5062054;28;20028;-58
2022/08/13 08:44:59;;;;;;;91.65;87.15;;;;;;;;;;5061895;28;20029;-59
2022/08/13 08:47:35;;;;;;;80.93;76.93;;;;;;;;;;5058977;28;20067;-58
2022/08/13 08:50:01;;;;;;;86.75;82.50;;;;;;;;;;5060914;28;20541;-58
2022/08/13 08:55:12;;;;;;;80.88;76.88;;;;;;;;;;5063510;28;20017;-58
2022/08/13 08:57:39;;;;;;;86.53;82.28;;;;;;;;;;5061411;28;20032;-59
2022/08/13 09:00:05;;;;;;;112.63;107.10;;;;;;;;;;5065334;28;20032;-59
2022/08/13 09:02:33;;;;;;;80.85;76.85;;;;;;;;;;5061288;28;20415;-59
2022/08/13 09:05:01;;;;;;;80.57;76.63;;;;;;;;;;5063276;28;20039;-59
2022/08/13 09:07:28;;;;;;;107.95;102.65;;;;;;;;;;5062553;28;20385;-59
2022/08/13 09:09:56;;;;;;;83.88;79.78;;;;;;;;;;5065002;28;20051;-58
2022/08/13 09:12:25;;;;;;;82.20;78.18;;;;;;;;;;5060526;28;20028;-58
2022/08/13 09:14:51;;;;;;;83.57;79.45;;;;;;;;;;5059476;28;20142;-58
2022/08/13 09:17:18;;;;;;;83.63;79.50;;;;;;;;;;5063829;28;20068;-59
2022/08/13 09:19:44;;;;;;;82.57;78.47;;;;;;;;;;5064129;28;20115;-59
2022/08/13 09:22:14;;;;;;;86.75;82.45;;;;;;;;;;5060215;28;20170;-59
2022/08/13 09:24:45;;;;;;;117.68;111.90;;;;;;;;;;5060767;28;20114;-59
2022/08/13 09:27:15;;;;;;;94.72;90.07;;;;;;;;;;5065077;28;20045;-59
2022/08/13 09:29:42;;;;;;;139.90;133.07;;;;;;;;;;5061894;28;20028;-59
2022/08/13 09:32:09;;;;;;;90.57;86.10;;;;;;;;;;5061709;28;20021;-57
2022/08/13 09:34:37;;;;;;;88.15;83.82;;;;;;;;;;5062629;28;20037;-58
2022/08/13 09:37:04;;;;;;;96.47;91.75;;;;;;;;;;5057411;28;20028;-59
2022/08/13 09:39:33;;;;;;;81.25;77.25;;;;;;;;;;5059569;28;20125;-59
2022/08/13 09:42:02;;;;;;;86.82;82.53;;;;;;;;;;5060856;28;20528;-59
2022/08/13 09:44:28;;;;;;;89.13;84.72;;;;;;;;;;5059843;28;20032;-59
2022/08/13 09:46:54;;;;;;;91.20;86.70;;;;;;;;;;5058455;28;20044;-59
2022/08/13 09:49:23;;;;;;;91.38;86.85;;;;;;;;;;5057488;28;20025;-58
2022/08/13 09:51:49;;;;;;;76.50;72.70;;;;;;;;;;5064477;28;20051;-59
2022/08/13 09:54:16;;;;;;;86.78;82.47;;;;;;;;;;5061912;28;20259;-58
2022/08/13 09:56:42;;;;;;;75.70;71.95;;;;;;;;;;5061144;28;20374;-59
2022/08/13 09:59:10;;;;;;;87.60;83.30;;;;;;;;;;5061389;28;20029;-58
2022/08/13 10:01:36;;;;;;;92.28;87.72;;;;;;;;;;5062800;28;20028;-58
2022/08/13 10:04:02;;;;;;;84.97;80.78;;;;;;;;;;5065296;28;20056;-58
2022/08/13 10:06:28;;;;;;;89.50;85.10;;;;;;;;;;5063700;28;20559;-58
2022/08/13 10:08:59;;;;;;;95.00;90.32;;;;;;;;;;5066839;28;20359;-58
2022/08/13 10:11:24;;;;;;;79.85;75.85;;;;;;;;;;5062790;28;20037;-58
2022/08/13 10:13:49;;;;;;;91.95;87.45;;;;;;;;;;5061775;28;20046;-59
2022/08/13 10:16:15;;;;;;;87.30;83.00;;;;;;;;;;5065769;28;20028;-60
2022/08/13 10:18:41;;;;;;;90.60;86.15;;;;;;;;;;5047758;28;20036;-59
2022/08/13 10:21:08;;;;;;;76.30;72.50;;;;;;;;;;5062023;28;20033;-59
2022/08/13 10:23:33;;;;;;;65.63;62.33;;;;;;;;;;5062593;28;20043;-59
2022/08/13 10:26:00;;;;;;;75.30;71.57;;;;;;;;;;5060190;28;20040;-59
2022/08/13 10:28:32;;;;;;;84.55;80.40;;;;;;;;;;5064475;28;20419;-60
2022/08/13 10:31:07;;;;;;;58.33;55.42;;;;;;;;;;5063724;28;20040;-60
2022/08/13 10:33:36;;;;;;;57.85;54.95;;;;;;;;;;5060121;28;20029;-59
2022/08/13 10:36:03;;;;;;;57.03;54.13;;;;;;;;;;5064034;28;20870;-58
2022/08/13 10:38:29;;;;;;;55.30;52.50;;;;;;;;;;5058580;28;20067;-58
2022/08/13 10:40:56;;;;;;;75.00;71.30;;;;;;;;;;5059783;28;20505;-59
2022/08/13 10:43:22;;;;;;;83.65;79.55;;;;;;;;;;5065805;28;20447;-60
2022/08/13 10:45:52;;;;;;;49.63;47.13;;;;;;;;;;5049181;28;20032;-59
2022/08/13 10:48:17;;;;;;;59.92;56.95;;;;;;;;;;5056873;28;20028;-59
2022/08/13 10:50:43;;;;;;;53.72;51.03;;;;;;;;;;5057309;28;21009;-59
2022/08/13 10:53:55;;;;;;;54.35;51.65;;;;;;;;;;5062151;28;20028;-60
2022/08/13 10:55:54;;;;;;;51.88;49.28;;;;;;;;;;5061774;28;20101;-60
2022/08/13 10:58:20;;;;;;;74.88;71.18;;;;;;;;;;5059374;28;20013;-60
2022/08/13 11:00:45;;;;;;;47.50;45.10;;;;;;;;;;5061155;28;20043;-59
2022/08/13 11:03:13;;;;;;;51.85;49.17;;;;;;;;;;5062111;28;20032;-59
2022/08/13 11:05:38;;;;;;;89.10;84.65;;;;;;;;;;5058572;28;20077;-60
2022/08/13 11:08:03;;;;;;;58.13;55.22;;;;;;;;;;5062578;28;20032;-58
2022/08/13 11:10:29;;;;;;;55.30;52.50;;;;;;;;;;5060742;28;20380;-59
2022/08/13 11:12:54;;;;;;;50.83;48.22;;;;;;;;;;5064306;28;20032;-58
2022/08/13 11:15:21;;;;;;;57.45;54.55;;;;;;;;;;5059312;28;20111;-58
2022/08/13 11:17:48;;;;;;;48.30;45.85;;;;;;;;;;5062385;28;20103;-58
2022/08/13 11:20:17;;;;;;;48.63;46.15;;;;;;;;;;5057611;28;20025;-59
2022/08/13 11:22:42;;;;;;;52.67;50.00;;;;;;;;;;5061250;28;20043;-58
2022/08/13 11:25:08;;;;;;;55.13;52.35;;;;;;;;;;5062769;28;20040;-59
2022/08/13 11:27:34;;;;;;;55.30;52.50;;;;;;;;;;5061387;28;20119;-59
2022/08/13 11:30:00;;;;;;;59.60;56.60;;;;;;;;;;5062496;28;20036;-59
2022/08/13 11:32:25;;;;;;;56.67;53.83;;;;;;;;;;5058007;28;20074;-59
2022/08/13 11:34:50;;;;;;;59.28;56.30;;;;;;;;;;5065203;28;20039;-59
2022/08/13 11:37:16;;;;;;;59.38;56.38;;;;;;;;;;5063443;28;20074;-60
2022/08/13 11:39:41;;;;;;;58.13;55.22;;;;;;;;;;5068065;28;20086;-60
2022/08/13 11:42:06;;;;;;;73.85;70.18;;;;;;;;;;5063443;28;20195;-60
2022/08/13 11:44:32;;;;;;;55.75;52.95;;;;;;;;;;5065032;28;20036;-60
2022/08/13 11:46:57;;;;;;;78.07;74.18;;;;;;;;;;5064689;28;20064;-60
2022/08/13 11:49:22;;;;;;;61.97;58.88;;;;;;;;;;5059163;28;20039;-59
2022/08/13 11:51:48;;;;;;;64.45;61.25;;;;;;;;;;5068691;28;20589;-59
2022/08/13 11:54:14;;;;;;;65.22;61.97;;;;;;;;;;5065748;28;20032;-58
2022/08/13 11:56:40;;;;;;;55.50;52.70;;;;;;;;;;5064135;28;20059;-59
2022/08/13 11:59:06;;;;;;;60.35;57.33;;;;;;;;;;5063848;28;20642;-59
2022/08/13 12:01:31;;;;;;;81.20;77.20;;;;;;;;;;5065687;28;20503;-59
2022/08/13 12:03:57;;;;;;;93.30;88.72;;;;;;;;;;5063815;28;20025;-60
2022/08/13 12:06:22;;;;;;;66.40;63.10;;;;;;;;;;5057934;28;20037;-60
2022/08/13 12:08:48;;;;;;;61.58;58.47;;;;;;;;;;5064496;28;20032;-59
2022/08/13 12:11:13;;;;;;;62.83;59.70;;;;;;;;;;5062792;28;20058;-60
2022/08/13 12:13:39;;;;;;;56.38;53.58;;;;;;;;;;5062212;28;20040;-60
2022/08/13 12:16:04;;;;;;;84.85;80.65;;;;;;;;;;5061123;28;20028;-60
2022/08/13 12:18:30;;;;;;;79.18;75.25;;;;;;;;;;5063945;28;20343;-59
2022/08/13 12:20:56;;;;;;;64.10;60.88;;;;;;;;;;5058370;28;20104;-60
2022/08/13 12:23:21;;;;;;;79.82;75.85;;;;;;;;;;5058754;28;20120;-63
2022/08/13 12:25:47;;;;;;;75.35;71.63;;;;;;;;;;5063570;28;20135;-63
2022/08/13 12:28:22;;;;;;;83.38;79.25;;;;;;;;;;5066471;28;20024;-62
2022/08/13 12:30:51;;;;;;;89.72;85.30;;;;;;;;;;5059718;28;20039;-61
2022/08/13 12:33:17;;;;;;;86.47;82.18;;;;;;;;;;5061687;28;20531;-62
2022/08/13 12:35:43;;;;;;;90.28;85.82;;;;;;;;;;5061951;28;20421;-62
2022/08/13 12:38:11;;;;;;;87.70;83.38;;;;;;;;;;5060719;28;20079;-63
2022/08/13 12:40:38;;;;;;;67.13;63.83;;;;;;;;;;5060887;28;20110;-64
2022/08/13 12:43:04;;;;;;;70.60;67.10;;;;;;;;;;5063102;28;20378;-63
2022/08/13 12:45:30;;;;;;;70.82;67.32;;;;;;;;;;5063233;28;20032;-64
2022/08/13 12:48:05;;;;;;;91.32;86.82;;;;;;;;;;5059334;28;20485;-64
2022/08/13 12:50:30;;;;;;;83.15;79.05;;;;;;;;;;5057547;28;20194;-62
2022/08/13 12:52:56;;;;;;;93.65;89.00;;;;;;;;;;5063632;28;20135;-63
2022/08/13 12:55:21;;;;;;;76.57;72.78;;;;;;;;;;5057161;28;20358;-62
2022/08/13 12:57:46;;;;;;;83.30;79.20;;;;;;;;;;5055931;28;20063;-62
2022/08/13 13:00:12;;;;;;;80.68;76.68;;;;;;;;;;5053626;28;20035;-63
2022/08/13 13:02:39;;;;;;;109.00;103.63;;;;;;;;;;5068336;28;20438;-66
2022/08/13 13:05:05;;;;;;;92.78;88.20;;;;;;;;;;5067055;28;20036;-65
2022/08/13 13:07:30;;;;;;;81.53;77.50;;;;;;;;;;5064138;28;20434;-62
2022/08/13 13:09:59;;;;;;;83.72;79.60;;;;;;;;;;5065071;28;20031;-61
2022/08/13 13:12:24;;;;;;;74.90;71.15;;;;;;;;;;5059344;28;20040;-61
2022/08/13 13:14:50;;;;;;;94.00;89.35;;;;;;;;;;5058708;28;20025;-63
2022/08/13 13:17:15;;;;;;;87.38;83.05;;;;;;;;;;5057516;28;20078;-62
2022/08/13 13:19:40;;;;;;;91.93;87.38;;;;;;;;;;5062173;28;20029;-61
2022/08/13 13:22:06;;;;;;;85.93;81.43;;;;;;;;;;5056936;28;20051;-62
2022/08/13 13:24:31;;;;;;;79.90;75.93;;;;;;;;;;5063998;28;20032;-61
2022/08/13 13:26:57;;;;;;;71.90;68.30;;;;;;;;;;5062083;28;20037;-62
2022/08/13 13:29:23;;;;;;;98.93;94.03;;;;;;;;;;5057316;28;20514;-65
2022/08/13 13:31:48;;;;;;;76.25;72.45;;;;;;;;;;5056116;28;20033;-61
2022/08/13 13:34:16;;;;;;;76.55;72.75;;;;;;;;;;5058905;28;20131;-61
2022/08/13 13:36:41;;;;;;;79.55;75.63;;;;;;;;;;5060895;28;20094;-61
2022/08/13 13:39:06;;;;;;;79.53;75.57;;;;;;;;;;5064767;28;20397;-61
2022/08/13 13:41:32;;;;;;;75.10;71.38;;;;;;;;;;5065315;28;20489;-61
2022/08/13 13:43:57;;;;;;;79.35;75.43;;;;;;;;;;5063473;28;20043;-63
2022/08/13 13:46:22;;;;;;;77.53;73.65;;;;;;;;;;5061023;28;20656;-62
2022/08/13 13:48:48;;;;;;;83.05;78.93;;;;;;;;;;5065809;28;20094;-59
2022/08/13 13:51:14;;;;;;;82.78;78.68;;;;;;;;;;5057060;28;20028;-62
2022/08/13 13:53:43;;;;;;;76.07;72.28;;;;;;;;;;5064998;28;20028;-62
2022/08/13 13:56:13;;;;;;;71.97;67.97;;;;;;;;;;5061687;28;20063;-60
2022/08/13 13:58:39;;;;;;;72.60;68.95;;;;;;;;;;5061890;28;20709;-59
2022/08/13 14:01:06;;;;;;;89.45;85.05;;;;;;;;;;5057184;28;20075;-60
2022/08/13 14:03:31;;;;;;;71.07;67.47;;;;;;;;;;5058937;28;20128;-60
2022/08/13 14:05:59;;;;;;;76.78;72.85;;;;;;;;;;5061700;28;20546;-60
2022/08/13 14:08:27;;;;;;;91.80;87.15;;;;;;;;;;5061238;28;20033;-60
2022/08/13 14:10:53;;;;;;;89.90;85.38;;;;;;;;;;5059584;28;20046;-60
2022/08/13 14:13:19;;;;;;;77.25;73.28;;;;;;;;;;5063424;28;20108;-60
2022/08/13 14:15:48;;;;;;;72.85;69.15;;;;;;;;;;5062121;28;20091;-60
2022/08/13 14:18:15;;;;;;;75.72;71.95;;;;;;;;;;5061454;28;20389;-59
2022/08/13 14:20:43;;;;;;;98.97;94.07;;;;;;;;;;5062982;28;20032;-62
2022/08/13 14:23:09;;;;;;;88.53;84.13;;;;;;;;;;5063580;28;20025;-59
2022/08/13 14:25:38;;;;;;;117.40;111.55;;;;;;;;;;5061165;28;20417;-59
2022/08/13 14:28:05;;;;;;;89.28;84.88;;;;;;;;;;5063825;28;20263;-59
2022/08/13 14:30:31;;;;;;;90.72;86.22;;;;;;;;;;5056607;28;20486;-59
2022/08/13 14:32:56;;;;;;;84.90;80.68;;;;;;;;;;5060746;28;20033;-60
2022/08/13 14:35:22;;;;;;;82.85;78.72;;;;;;;;;;5056863;28;20029;-59
2022/08/13 14:37:49;;;;;;;71.95;68.35;;;;;;;;;;5061754;28;20036;-59
2022/08/13 14:40:17;;;;;;;79.65;75.68;;;;;;;;;;5061228;28;20074;-59
2022/08/13 14:42:52;;;;;;;67.40;64.03;;;;;;;;;;5059285;28;20028;-62
2022/08/13 14:48:06;;;;;;;76.78;72.97;;;;;;;;;;5063071;28;20346;-60
2022/08/13 14:50:33;;;;;;;64.30;61.08;;;;;;;;;;5054793;28;20021;-60
2022/08/13 14:53:00;;;;;;;66.22;62.92;;;;;;;;;;5058349;28;20477;-63